Time;durP1;ratioP1;P1;durP2;ratioP2;P2;SDS_P1;SDS_P2;PMS_P1;PMS_P2;Temp;Humidity;BMP_temperature;BMP_pressure;BME280_temperature;BME280_humidity;BME280_pressure;Samples;Min_cycle;Max_cycle;Signal;HPM_P1;HPM_P2
2023/04/23 00:00:02;;;;;;;27.48;21.85;;;12.60;99.90;;;;;;4992875;28;20464;-87
2023/04/23 00:02:32;;;;;;;28.00;20.33;;;12.50;99.90;;;;;;4994216;28;20183;-82
2023/04/23 00:05:05;;;;;;;26.77;20.57;;;12.60;99.90;;;;;;4994476;28;20496;-87
2023/04/23 00:07:35;;;;;;;26.33;20.77;;;12.60;99.90;;;;;;4992951;28;20469;-82
2023/04/23 00:10:04;;;;;;;28.17;21.40;;;12.50;99.90;;;;;;4994378;28;20437;-82
2023/04/23 00:12:31;;;;;;;26.20;21.27;;;12.50;99.90;;;;;;4992929;28;20414;-87
2023/04/23 00:15:00;;;;;;;29.00;21.57;;;12.50;99.90;;;;;;4994119;28;20294;-82
2023/04/23 00:17:26;;;;;;;27.35;21.77;;;12.50;99.90;;;;;;4998502;28;20915;-81
2023/04/23 00:19:52;;;;;;;27.30;21.70;;;12.50;99.90;;;;;;4997106;28;20203;-81
2023/04/23 00:22:19;;;;;;;28.80;21.90;;;12.50;99.90;;;;;;4998250;28;20191;-85
2023/04/23 00:24:45;;;;;;;27.80;21.77;;;12.50;99.90;;;;;;4996784;28;20207;-87
2023/04/23 00:27:11;;;;;;;27.73;22.90;;;12.40;99.90;;;;;;4996736;28;20207;-81
2023/04/23 00:29:37;;;;;;;24.20;21.23;;;12.40;99.90;;;;;;4996687;28;20817;-87
2023/04/23 00:32:03;;;;;;;25.95;21.73;;;12.50;99.90;;;;;;4996689;28;20416;-86
2023/04/23 00:34:29;;;;;;;28.73;20.97;;;12.40;99.90;;;;;;4996703;28;20215;-87
2023/04/23 00:36:55;;;;;;;27.83;22.88;;;12.50;99.90;;;;;;4996550;28;20421;-82
2023/04/23 00:39:21;;;;;;;29.97;23.30;;;12.40;99.90;;;;;;4997921;28;20223;-82
2023/04/23 00:41:47;;;;;;;29.37;22.33;;;12.40;99.90;;;;;;4997828;28;20226;-86
2023/04/23 00:44:13;;;;;;;28.20;23.83;;;12.40;99.90;;;;;;4996685;28;20433;-82
2023/04/23 00:46:39;;;;;;;27.80;22.07;;;12.40;99.90;;;;;;4997809;28;20626;-87
2023/04/23 00:49:05;;;;;;;31.00;22.93;;;12.30;99.90;;;;;;4997641;28;20487;-82
2023/04/23 00:51:31;;;;;;;30.13;21.87;;;12.30;99.90;;;;;;4996266;28;20195;-85
2023/04/23 00:53:57;;;;;;;27.00;21.47;;;12.30;99.90;;;;;;4996379;28;20179;-82
2023/04/23 00:56:24;;;;;;;24.67;21.43;;;12.20;99.90;;;;;;4997566;28;20524;-88
2023/04/23 00:58:51;;;;;;;30.60;21.53;;;12.30;99.90;;;;;;4997546;28;20440;-82
2023/04/23 01:01:19;;;;;;;36.72;22.90;;;12.30;99.90;;;;;;4997565;28;20432;-87
2023/04/23 01:03:47;;;;;;;32.63;22.55;;;12.20;99.90;;;;;;4996197;28;20188;-81
2023/04/23 01:06:14;;;;;;;28.42;21.60;;;12.10;99.90;;;;;;4996194;28;20243;-81
2023/04/23 01:08:43;;;;;;;26.20;21.55;;;12.10;99.90;;;;;;4998110;28;20298;-81
2023/04/23 01:11:09;;;;;;;24.17;20.75;;;12.00;99.90;;;;;;4997716;28;20242;-86
2023/04/23 01:13:35;;;;;;;28.83;21.90;;;12.00;99.90;;;;;;4996683;28;20184;-81
2023/04/23 01:16:01;;;;;;;25.70;19.50;;;12.00;99.90;;;;;;4996610;28;20464;-81
2023/04/23 01:18:28;;;;;;;29.83;20.97;;;12.00;99.90;;;;;;4996710;28;20196;-87
2023/04/23 01:20:54;;;;;;;24.08;20.23;;;11.90;99.90;;;;;;4995821;28;20201;-82
2023/04/23 01:23:20;;;;;;;24.80;20.43;;;11.90;99.90;;;;;;4995756;28;20270;-87
2023/04/23 01:25:46;;;;;;;27.20;21.05;;;11.80;99.90;;;;;;4995151;28;20456;-87
2023/04/23 01:28:12;;;;;;;25.37;20.83;;;11.80;99.90;;;;;;4996987;28;20199;-82
2023/04/23 01:30:39;;;;;;;24.00;21.03;;;11.90;99.90;;;;;;4995640;28;20210;-82
2023/04/23 01:33:05;;;;;;;27.88;20.70;;;11.80;99.90;;;;;;4996863;28;20414;-82
2023/04/23 01:35:34;;;;;;;28.67;21.60;;;11.70;99.90;;;;;;4996725;28;20238;-87
2023/04/23 01:38:02;;;;;;;26.17;20.17;;;11.70;99.90;;;;;;4996882;28;20675;-81
2023/04/23 01:40:28;;;;;;;25.48;19.85;;;11.60;99.90;;;;;;4995779;28;20818;-88
2023/04/23 01:42:55;;;;;;;25.23;19.92;;;11.50;99.90;;;;;;4996635;28;20168;-87
2023/04/23 01:45:21;;;;;;;24.73;20.17;;;11.50;99.90;;;;;;4995538;28;20204;-82
2023/04/23 01:47:47;;;;;;;25.80;19.77;;;11.50;99.90;;;;;;4995389;28;20585;-81
2023/04/23 01:50:13;;;;;;;27.23;19.47;;;11.50;99.90;;;;;;4996986;28;20460;-87
2023/04/23 01:52:40;;;;;;;22.90;20.37;;;11.50;99.90;;;;;;4995228;28;20941;-81
2023/04/23 01:55:06;;;;;;;26.75;20.85;;;11.40;99.90;;;;;;4996948;28;20192;-88
2023/04/23 01:57:31;;;;;;;23.77;20.37;;;11.40;99.90;;;;;;4995192;28;20547;-86
2023/04/23 02:00:07;;;;;;;28.87;22.07;;;11.40;99.90;;;;;;4996545;28;20540;-87
2023/04/23 02:02:34;;;;;;;24.83;20.15;;;11.40;99.90;;;;;;4996373;28;20731;-82
2023/04/23 02:05:03;;;;;;;26.58;21.75;;;11.30;99.90;;;;;;4995144;28;20331;-87
2023/04/23 02:07:33;;;;;;;29.60;22.70;;;11.30;99.90;;;;;;4994982;28;20218;-81
2023/04/23 02:09:59;;;;;;;30.15;22.35;;;11.40;99.90;;;;;;4996775;28;20207;-81
2023/04/23 02:12:25;;;;;;;30.20;22.53;;;11.40;99.90;;;;;;4996202;28;20164;-85
2023/04/23 02:14:52;;;;;;;26.13;21.88;;;11.40;99.90;;;;;;4994871;28;20199;-87
2023/04/23 02:17:24;;;;;;;26.70;21.45;;;11.30;99.90;;;;;;4996034;28;20574;-87
2023/04/23 02:19:50;;;;;;;28.25;22.60;;;11.10;99.90;;;;;;4995115;28;20212;-81
2023/04/23 02:22:16;;;;;;;30.80;21.07;;;11.10;99.90;;;;;;4996075;28;20179;-81
2023/04/23 02:24:43;;;;;;;26.70;21.10;;;11.10;99.90;;;;;;4996259;28;20311;-87
2023/04/23 02:27:09;;;;;;;25.13;20.65;;;11.20;99.90;;;;;;4994820;28;20270;-81
2023/04/23 02:29:35;;;;;;;25.67;20.80;;;11.10;99.90;;;;;;4997214;28;20646;-87
2023/04/23 02:32:02;;;;;;;24.73;20.58;;;11.10;99.90;;;;;;4995246;28;20418;-86
2023/04/23 02:34:28;;;;;;;24.73;20.70;;;11.20;99.90;;;;;;4995908;28;20219;-87
2023/04/23 02:36:54;;;;;;;32.17;21.13;;;11.10;99.90;;;;;;4993882;28;20214;-81
2023/04/23 02:39:19;;;;;;;29.40;22.20;;;11.00;99.90;;;;;;4994043;28;20242;-88
2023/04/23 02:41:45;;;;;;;25.10;20.27;;;11.10;99.90;;;;;;4995482;28;20194;-81
2023/04/23 02:44:11;;;;;;;31.63;22.70;;;11.00;99.90;;;;;;4995688;28;20421;-88
2023/04/23 02:46:37;;;;;;;25.40;21.23;;;11.00;99.90;;;;;;4994359;28;20556;-81
2023/04/23 02:49:05;;;;;;;28.98;22.90;;;11.00;99.90;;;;;;4994173;28;20678;-87
2023/04/23 02:51:31;;;;;;;27.85;22.17;;;10.90;99.90;;;;;;4995339;28;20653;-80
2023/04/23 02:53:57;;;;;;;27.97;21.63;;;10.80;99.90;;;;;;4995639;28;20190;-87
2023/04/23 02:56:23;;;;;;;28.80;21.98;;;10.80;99.90;;;;;;4994095;28;20294;-87
2023/04/23 02:58:49;;;;;;;24.63;21.00;;;10.90;99.90;;;;;;4994220;28;20234;-81
2023/04/23 03:01:15;;;;;;;26.07;22.30;;;10.80;99.90;;;;;;4995211;28;20724;-81
2023/04/23 03:03:41;;;;;;;29.38;23.08;;;10.90;99.90;;;;;;4993984;28;20194;-87
2023/04/23 03:06:07;;;;;;;25.13;22.42;;;10.90;99.90;;;;;;4993918;28;20704;-81
2023/04/23 03:08:32;;;;;;;25.17;22.07;;;10.80;99.90;;;;;;4995183;28;20231;-82
2023/04/23 03:10:58;;;;;;;29.87;23.57;;;10.80;99.90;;;;;;4994980;28;20431;-81
2023/04/23 03:13:25;;;;;;;28.07;22.47;;;10.80;99.90;;;;;;4995080;28;20172;-81
2023/04/23 03:15:52;;;;;;;28.77;23.50;;;10.80;99.90;;;;;;4994900;28;20242;-81
2023/04/23 03:18:19;;;;;;;31.45;22.70;;;10.70;99.90;;;;;;4994934;28;20218;-87
2023/04/23 03:20:44;;;;;;;29.05;22.45;;;10.70;99.90;;;;;;4993574;28;20196;-82
2023/04/23 03:23:10;;;;;;;26.50;21.60;;;10.80;99.90;;;;;;4993978;28;20186;-87
2023/04/23 03:25:36;;;;;;;25.93;21.73;;;10.80;99.90;;;;;;4995595;28;20204;-90
2023/04/23 03:28:02;;;;;;;26.70;22.27;;;10.70;99.90;;;;;;4996516;28;20274;-82
2023/04/23 03:30:28;;;;;;;27.47;22.43;;;10.70;99.90;;;;;;4995800;28;20449;-81
2023/04/23 03:32:55;;;;;;;30.73;22.65;;;10.70;99.90;;;;;;4993906;28;20183;-81
2023/04/23 03:35:25;;;;;;;27.08;21.58;;;10.60;99.90;;;;;;4995961;28;20234;-87
2023/04/23 03:37:51;;;;;;;24.42;20.52;;;10.50;99.90;;;;;;4993057;28;20641;-81
2023/04/23 03:40:16;;;;;;;27.80;21.33;;;10.50;99.90;;;;;;4994957;28;20199;-88
2023/04/23 03:42:42;;;;;;;23.73;19.63;;;10.40;99.90;;;;;;4993308;28;20423;-81
2023/04/23 03:45:08;;;;;;;29.03;21.97;;;10.40;99.90;;;;;;4994929;28;20433;-81
2023/04/23 03:47:35;;;;;;;27.75;22.13;;;10.40;99.90;;;;;;4993161;28;20628;-81
2023/04/23 03:50:01;;;;;;;29.98;22.90;;;10.40;99.90;;;;;;4994628;28;20343;-87
2023/04/23 03:52:27;;;;;;;28.97;22.50;;;10.40;99.90;;;;;;4993383;28;20262;-81
2023/04/23 03:54:53;;;;;;;30.17;23.70;;;10.30;99.90;;;;;;4993170;28;20492;-87
2023/04/23 03:57:20;;;;;;;31.43;25.30;;;10.30;99.90;;;;;;4993218;28;20184;-87
2023/04/23 03:59:45;;;;;;;30.77;24.88;;;10.30;99.90;;;;;;4993234;28;20488;-81
2023/04/23 04:02:11;;;;;;;35.00;26.53;;;10.30;99.90;;;;;;4993286;28;20176;-81
2023/04/23 04:04:37;;;;;;;34.30;24.87;;;10.30;99.90;;;;;;4994191;28;20212;-81
2023/04/23 04:07:03;;;;;;;28.80;22.97;;;10.30;99.90;;;;;;4993007;28;20401;-85
2023/04/23 04:09:29;;;;;;;37.93;22.47;;;10.30;99.90;;;;;;4993020;28;20238;-86
2023/04/23 04:11:55;;;;;;;26.83;22.25;;;10.30;99.90;;;;;;4993448;28;20176;-82
2023/04/23 04:14:21;;;;;;;25.90;20.17;;;10.30;99.90;;;;;;4994845;28;20695;-81
2023/04/23 04:16:47;;;;;;;27.52;22.10;;;10.30;99.90;;;;;;4994565;28;20552;-87
2023/04/23 04:19:13;;;;;;;26.10;22.50;;;10.30;99.90;;;;;;4994461;28;20648;-81
2023/04/23 04:21:38;;;;;;;30.30;21.30;;;10.20;99.90;;;;;;4994229;28;20429;-86
2023/04/23 04:24:04;;;;;;;30.53;23.57;;;10.20;99.90;;;;;;4990244;28;20637;-81
2023/04/23 04:26:31;;;;;;;31.37;22.33;;;10.20;99.90;;;;;;4994614;28;20433;-83
2023/04/23 04:29:00;;;;;;;27.35;21.65;;;10.20;99.90;;;;;;4987434;28;20247;-85
2023/04/23 04:31:27;;;;;;;25.60;21.63;;;10.30;99.90;;;;;;4992718;28;20214;-81
2023/04/23 04:33:54;;;;;;;32.20;23.20;;;10.30;99.90;;;;;;4990032;28;20700;-81
2023/04/23 04:36:20;;;;;;;29.30;24.63;;;10.30;99.90;;;;;;4991857;28;20194;-87
2023/04/23 04:38:46;;;;;;;28.90;23.98;;;10.30;99.90;;;;;;4990917;28;20589;-80
2023/04/23 04:41:12;;;;;;;35.63;24.43;;;10.40;99.90;;;;;;4990812;28;20200;-88
2023/04/23 04:43:39;;;;;;;37.30;27.05;;;10.40;99.90;;;;;;4991600;28;20180;-81
2023/04/23 04:46:04;;;;;;;33.47;25.60;;;10.50;99.90;;;;;;4988784;28;20196;-87
2023/04/23 04:48:30;;;;;;;30.87;24.47;;;10.50;99.90;;;;;;4988766;28;20214;-80
2023/04/23 04:50:56;;;;;;;33.03;25.80;;;10.60;99.90;;;;;;4989983;28;20946;-87
2023/04/23 04:53:22;;;;;;;31.67;25.03;;;10.60;99.90;;;;;;4989739;28;20219;-81
2023/04/23 04:55:48;;;;;;;32.67;27.00;;;10.80;99.90;;;;;;4988735;28;20421;-81
2023/04/23 04:58:14;;;;;;;30.87;26.13;;;10.90;99.90;;;;;;4988486;28;20452;-81
2023/04/23 05:00:39;;;;;;;34.53;25.70;;;11.00;99.90;;;;;;4990036;28;20456;-87
2023/04/23 05:03:05;;;;;;;29.90;24.63;;;11.10;99.90;;;;;;4996059;28;20176;-82
2023/04/23 05:05:32;;;;;;;28.65;22.20;;;11.30;99.90;;;;;;4994621;28;20204;-81
2023/04/23 05:08:03;;;;;;;32.70;25.08;;;11.40;99.90;;;;;;4994527;28;20241;-86
2023/04/23 05:10:29;;;;;;;34.78;24.48;;;11.50;99.90;;;;;;4996924;28;20558;-80
2023/04/23 05:12:59;;;;;;;30.83;24.33;;;11.70;99.90;;;;;;4996098;28;20180;-81
2023/04/23 05:15:25;;;;;;;32.10;23.35;;;11.80;99.90;;;;;;4996615;28;20350;-81
2023/04/23 05:17:52;;;;;;;23.80;20.70;;;12.00;99.90;;;;;;4996530;28;20222;-86
2023/04/23 05:20:19;;;;;;;30.90;22.83;;;12.10;99.90;;;;;;4995973;28;20203;-87
2023/04/23 05:22:44;;;;;;;28.38;21.83;;;12.20;99.90;;;;;;4996240;28;20182;-80
2023/04/23 05:25:11;;;;;;;26.00;21.77;;;12.30;99.90;;;;;;4995915;28;20306;-80
2023/04/23 05:27:37;;;;;;;27.27;20.50;;;12.40;99.90;;;;;;4995836;28;20215;-81
2023/04/23 05:30:07;;;;;;;24.42;21.90;;;12.50;99.90;;;;;;4997364;28;20204;-81
2023/04/23 05:32:33;;;;;;;23.88;19.67;;;12.60;99.90;;;;;;4995750;28;20668;-81
2023/04/23 05:34:59;;;;;;;24.23;19.38;;;12.80;99.90;;;;;;4995844;28;20214;-82
2023/04/23 05:37:25;;;;;;;28.23;21.87;;;12.90;99.90;;;;;;4995639;28;20519;-81
2023/04/23 05:39:51;;;;;;;23.90;20.33;;;13.00;99.90;;;;;;4995855;28;20575;-81
2023/04/23 05:42:16;;;;;;;28.77;21.33;;;13.10;99.90;;;;;;4995483;28;20202;-83
2023/04/23 05:44:42;;;;;;;26.03;20.90;;;13.20;99.90;;;;;;4997062;28;20203;-81
2023/04/23 05:47:09;;;;;;;23.83;21.07;;;13.20;99.90;;;;;;4995547;28;20180;-87
2023/04/23 05:49:35;;;;;;;25.20;21.23;;;13.30;99.90;;;;;;4995476;28;20270;-81
2023/04/23 05:52:02;;;;;;;22.57;20.30;;;13.40;99.90;;;;;;4996972;28;20445;-86
2023/04/23 05:54:28;;;;;;;25.00;19.77;;;13.50;99.90;;;;;;4996980;28;20187;-81
2023/04/23 05:56:54;;;;;;;22.20;19.80;;;13.60;99.90;;;;;;4997097;28;20761;-81
2023/04/23 05:59:19;;;;;;;22.57;18.23;;;13.60;99.90;;;;;;4996285;28;20429;-81
2023/04/23 06:01:46;;;;;;;20.77;18.53;;;13.70;99.90;;;;;;4996596;28;20751;-81
2023/04/23 06:04:12;;;;;;;22.10;18.40;;;13.70;99.90;;;;;;4995514;28;20712;-89
2023/04/23 06:06:38;;;;;;;26.33;18.67;;;13.80;99.90;;;;;;4996505;28;20406;-81
2023/04/23 06:09:04;;;;;;;25.20;18.77;;;13.90;99.90;;;;;;4995408;28;20488;-81
2023/04/23 06:11:31;;;;;;;21.10;18.80;;;14.00;99.90;;;;;;4996231;28;20206;-81
2023/04/23 06:14:00;;;;;;;24.80;19.80;;;14.10;99.90;;;;;;4995200;28;20970;-81
2023/04/23 06:16:26;;;;;;;22.40;19.63;;;14.20;99.90;;;;;;4996407;28;20961;-90
2023/04/23 06:18:52;;;;;;;20.63;17.70;;;14.20;99.90;;;;;;4996322;28;20417;-81
2023/04/23 06:21:19;;;;;;;22.43;18.50;;;14.30;99.90;;;;;;4997357;28;20250;-89
2023/04/23 06:23:44;;;;;;;20.10;17.80;;;14.30;99.90;;;;;;4996682;28;21015;-88
2023/04/23 06:26:10;;;;;;;19.87;17.80;;;14.50;99.90;;;;;;4996749;28;20475;-82
2023/04/23 06:28:36;;;;;;;21.93;16.70;;;14.60;99.90;;;;;;4996335;28;20207;-81
2023/04/23 06:31:01;;;;;;;18.67;16.67;;;14.80;99.90;;;;;;4995018;28;20203;-82
2023/04/23 06:33:27;;;;;;;19.17;16.93;;;14.90;99.90;;;;;;4994915;28;20254;-82
2023/04/23 06:35:52;;;;;;;19.90;15.90;;;15.00;99.90;;;;;;4994754;28;20195;-81
2023/04/23 06:38:21;;;;;;;21.60;16.10;;;15.20;99.90;;;;;;4995579;28;20232;-89
2023/04/23 06:40:47;;;;;;;21.03;14.83;;;15.30;99.90;;;;;;4994771;28;20214;-88
2023/04/23 06:43:13;;;;;;;20.43;15.53;;;15.30;99.90;;;;;;4994547;28;20780;-86
2023/04/23 06:45:39;;;;;;;17.03;14.43;;;15.40;99.90;;;;;;4994503;28;20512;-81
2023/04/23 06:48:05;;;;;;;18.57;14.43;;;15.50;99.90;;;;;;4995892;28;20465;-88
2023/04/23 06:50:32;;;;;;;16.30;14.60;;;15.70;99.90;;;;;;4994848;28;20525;-90
2023/04/23 06:52:57;;;;;;;17.70;15.30;;;15.80;99.90;;;;;;4999407;28;20413;-82
2023/04/23 06:55:25;;;;;;;25.70;16.10;;;15.90;99.90;;;;;;4996396;28;20855;-81
2023/04/23 06:57:55;;;;;;;36.97;25.30;;;16.10;99.90;;;;;;4994221;28;20187;-89
2023/04/23 07:00:22;;;;;;;46.97;34.90;;;16.20;99.90;;;;;;4994465;28;20440;-82
2023/04/23 07:02:48;;;;;;;33.00;25.43;;;16.30;99.90;;;;;;4996696;28;20405;-89
2023/04/23 07:05:14;;;;;;;21.17;16.97;;;16.30;99.90;;;;;;4994360;28;20454;-84
2023/04/23 07:07:41;;;;;;;21.23;16.10;;;16.40;99.90;;;;;;4994122;28;20958;-81
2023/04/23 07:10:10;;;;;;;33.13;23.80;;;16.50;99.90;;;;;;4994742;28;20587;-81
2023/04/23 07:12:36;;;;;;;43.73;34.67;;;16.70;99.90;;;;;;4994441;28;20421;-89
2023/04/23 07:15:02;;;;;;;40.63;30.67;;;16.80;99.90;;;;;;4995547;28;20766;-81
2023/04/23 07:17:28;;;;;;;18.37;16.50;;;16.90;99.90;;;;;;4995147;28;20784;-82
2023/04/23 07:19:54;;;;;;;27.33;21.00;;;17.00;99.90;;;;;;4995317;28;20524;-82
2023/04/23 07:22:20;;;;;;;16.90;14.53;;;17.10;99.90;;;;;;4995056;28;20176;-82
2023/04/23 07:24:46;;;;;;;18.00;15.07;;;17.10;99.90;;;;;;4994714;28;20227;-87
2023/04/23 07:27:12;;;;;;;17.50;14.90;;;17.10;99.90;;;;;;4994852;28;20452;-87
2023/04/23 07:29:38;;;;;;;20.37;16.70;;;17.10;99.90;;;;;;4993968;28;20770;-82
2023/04/23 07:32:04;;;;;;;15.90;13.93;;;17.30;99.90;;;;;;4994827;28;20406;-82
2023/04/23 07:34:29;;;;;;;17.17;14.13;;;17.50;99.90;;;;;;4995100;28;20700;-82
2023/04/23 07:36:56;;;;;;;22.00;15.00;;;17.70;99.90;;;;;;4996475;28;20182;-86
2023/04/23 07:39:22;;;;;;;16.87;15.13;;;17.90;99.90;;;;;;4995509;28;20263;-82
2023/04/23 07:41:47;;;;;;;21.23;13.53;;;18.00;99.90;;;;;;4993594;28;20421;-81
2023/04/23 07:44:13;;;;;;;16.60;13.80;;;18.20;99.90;;;;;;4994696;28;20184;-81
2023/04/23 07:46:39;;;;;;;19.97;16.93;;;18.20;99.90;;;;;;4994834;28;20589;-88
2023/04/23 07:49:06;;;;;;;35.33;27.90;;;18.20;99.90;;;;;;4993436;28;20677;-82
2023/04/23 07:51:32;;;;;;;25.27;22.80;;;18.40;99.90;;;;;;4993663;28;20437;-87
2023/04/23 07:53:57;;;;;;;19.80;14.50;;;18.40;99.90;;;;;;4993426;28;20577;-82
2023/04/23 07:56:23;;;;;;;15.00;13.17;;;18.40;99.90;;;;;;4993058;28;20196;-82
2023/04/23 07:58:52;;;;;;;43.63;29.37;;;18.60;99.90;;;;;;4993459;28;20186;-82
2023/04/23 08:01:18;;;;;;;45.40;35.10;;;18.80;99.90;;;;;;4993331;28;20986;-88
2023/04/23 08:03:44;;;;;;;14.80;13.07;;;18.80;99.90;;;;;;4994663;28;20411;-82
2023/04/23 08:06:11;;;;;;;14.40;13.00;;;18.90;99.90;;;;;;4993324;28;20440;-81
2023/04/23 08:08:37;;;;;;;14.70;11.57;;;18.90;99.90;;;;;;4993102;28;20258;-82
2023/04/23 08:11:05;;;;;;;17.80;13.17;;;19.10;99.90;;;;;;4994426;28;20449;-82
2023/04/23 08:13:31;;;;;;;15.20;12.40;;;19.20;99.90;;;;;;4994370;28;20412;-82
2023/04/23 08:15:56;;;;;;;14.23;12.73;;;19.30;99.90;;;;;;4993093;28;20456;-81
2023/04/23 08:18:23;;;;;;;16.37;12.10;;;19.50;99.90;;;;;;4993740;28;20224;-87
2023/04/23 08:20:49;;;;;;;18.77;13.30;;;19.80;99.90;;;;;;4992785;28;20290;-82
2023/04/23 08:23:15;;;;;;;12.00;10.90;;;20.00;99.90;;;;;;4994328;28;20997;-85
2023/04/23 08:25:41;;;;;;;14.20;12.73;;;20.10;99.90;;;;;;4993319;28;20450;-81
2023/04/23 08:28:06;;;;;;;15.20;11.17;;;20.20;99.90;;;;;;4992484;28;20211;-88
2023/04/23 08:30:32;;;;;;;15.20;13.70;;;20.20;99.90;;;;;;4993203;28;20449;-82
2023/04/23 08:32:58;;;;;;;16.83;12.23;;;20.20;99.90;;;;;;4992668;28;20213;-82
2023/04/23 08:35:24;;;;;;;13.17;11.40;;;20.30;99.90;;;;;;4992895;28;20656;-82
2023/04/23 08:37:50;;;;;;;20.33;16.67;;;20.30;99.90;;;;;;4997732;28;20179;-81
2023/04/23 08:40:16;;;;;;;13.03;11.63;;;20.40;99.90;;;;;;4996532;28;20483;-82
2023/04/23 08:42:54;;;;;;;17.00;13.97;;;20.60;99.90;;;;;;4995994;28;20406;-85
2023/04/23 08:45:20;;;;;;;10.87;9.77;;;20.70;99.90;;;;;;4994773;28;20200;-82
2023/04/23 08:47:46;;;;;;;13.30;10.37;;;20.90;99.90;;;;;;4995706;28;20503;-82
2023/04/23 08:50:16;;;;;;;10.83;9.43;;;20.90;99.90;;;;;;4994575;28;20492;-82
2023/04/23 08:52:51;;;;;;;12.23;10.80;;;20.90;99.90;;;;;;4995956;28;20580;-81
2023/04/23 08:55:19;;;;;;;11.23;10.17;;;21.10;99.90;;;;;;4995314;28;20433;-82
2023/04/23 08:57:46;;;;;;;9.77;8.87;;;21.50;99.90;;;;;;4994351;28;20911;-82
2023/04/23 09:00:13;;;;;;;11.07;9.97;;;22.00;99.90;;;;;;4995786;28;20444;-82
2023/04/23 09:02:44;;;;;;;9.37;7.80;;;22.60;99.90;;;;;;4995862;28;20969;-89
2023/04/23 09:05:10;;;;;;;10.60;9.60;;;22.80;99.90;;;;;;4994577;28;20440;-89
2023/04/23 09:07:36;;;;;;;10.53;8.90;;;23.00;99.90;;;;;;4994273;28;20842;-83
2023/04/23 09:10:04;;;;;;;10.80;8.70;;;23.10;99.90;;;;;;4995645;28;20484;-83
2023/04/23 09:12:31;;;;;;;10.50;9.40;;;23.20;99.90;;;;;;4996262;28;20501;-83
2023/04/23 09:14:57;;;;;;;11.63;9.37;;;22.90;99.90;;;;;;4996410;28;20555;-89
2023/04/23 09:17:28;;;;;;;10.10;9.10;;;22.80;99.90;;;;;;4996836;28;20415;-82
2023/04/23 09:19:54;;;;;;;9.97;8.63;;;22.80;99.90;;;;;;4998448;28;20592;-88
2023/04/23 09:22:39;;;;;;;9.70;8.77;;;23.00;99.90;;;;;;4996021;28;20414;-83
2023/04/23 09:25:06;;;;;;;9.43;8.60;;;23.30;99.90;;;;;;4997501;28;20847;-83
2023/04/23 09:27:32;;;;;;;8.33;7.40;;;23.40;99.50;;;;;;4997087;28;20473;-88
2023/04/23 09:30:03;;;;;;;8.07;7.37;;;23.50;98.80;;;;;;4999101;28;20444;-82
2023/04/23 09:32:34;;;;;;;10.10;8.97;;;23.60;98.40;;;;;;4997304;28;20404;-89
2023/04/23 09:35:04;;;;;;;8.67;7.87;;;23.60;97.00;;;;;;4995990;28;20449;-83
2023/04/23 09:37:31;;;;;;;9.13;8.30;;;23.30;96.70;;;;;;4995740;28;20411;-82
2023/04/23 09:40:08;;;;;;;9.40;8.40;;;23.30;97.90;;;;;;4995516;28;20484;-83
2023/04/23 09:42:35;;;;;;;8.00;7.20;;;23.40;97.70;;;;;;4995640;28;20421;-83
2023/04/23 09:45:11;;;;;;;7.73;7.00;;;23.50;97.10;;;;;;4997217;28;20803;-83
2023/04/23 09:47:48;;;;;;;7.40;6.60;;;23.70;95.10;;;;;;4996943;28;20566;-82
2023/04/23 09:50:14;;;;;;;7.40;6.60;;;23.60;94.30;;;;;;4995743;28;20459;-89
2023/04/23 09:52:40;;;;;;;7.90;6.77;;;23.80;93.20;;;;;;4995681;28;20444;-88
2023/04/23 09:55:07;;;;;;;5.97;5.47;;;23.90;92.90;;;;;;4996984;28;20458;-83
2023/04/23 09:57:43;;;;;;;6.80;6.10;;;24.00;91.00;;;;;;4995616;28;20510;-89
2023/04/23 10:00:21;;;;;;;11.27;6.07;;;24.10;90.00;;;;;;4996964;28;20459;-84
2023/04/23 10:02:49;;;;;;;6.03;5.53;;;24.10;85.40;;;;;;4995406;28;20417;-82
2023/04/23 10:05:19;;;;;;;6.07;5.57;;;24.20;84.20;;;;;;4995308;28;20527;-87
2023/04/23 10:07:47;;;;;;;7.07;5.70;;;24.20;76.20;;;;;;4995142;28;21086;-87
2023/04/23 10:10:17;;;;;;;6.30;5.73;;;24.30;75.00;;;;;;4995452;28;20559;-83
2023/04/23 10:12:44;;;;;;;6.70;6.10;;;24.20;72.80;;;;;;4995381;28;20482;-83
2023/04/23 10:15:11;;;;;;;6.63;6.03;;;23.80;71.50;;;;;;4996179;28;20439;-82
2023/04/23 10:17:37;;;;;;;7.60;6.07;;;23.50;73.50;;;;;;4994949;28;20424;-82
2023/04/23 10:20:04;;;;;;;5.93;5.43;;;23.40;77.00;;;;;;4996582;28;20471;-83
2023/04/23 10:22:33;;;;;;;6.90;6.10;;;23.30;75.40;;;;;;4994988;28;20940;-87
2023/04/23 10:25:02;;;;;;;6.20;5.60;;;23.30;77.50;;;;;;4994994;28;20880;-86
2023/04/23 10:27:30;;;;;;;9.77;5.70;;;23.40;76.80;;;;;;4995836;28;20410;-83
2023/04/23 10:30:00;;;;;;;7.47;6.77;;;23.50;75.50;;;;;;4994996;28;20489;-90
2023/04/23 10:32:26;;;;;;;6.33;5.83;;;23.40;73.60;;;;;;4996484;28;20406;-89
2023/04/23 10:34:53;;;;;;;7.30;6.00;;;23.40;75.30;;;;;;4993811;28;20474;-83
2023/04/23 10:37:21;;;;;;;7.23;6.27;;;23.50;77.80;;;;;;4992604;28;20522;-87
2023/04/23 10:39:52;;;;;;;7.83;6.70;;;23.60;78.00;;;;;;4992440;28;20867;-88
2023/04/23 10:42:19;;;;;;;7.23;6.63;;;23.70;77.70;;;;;;4992973;28;20429;-82
2023/04/23 10:44:45;;;;;;;7.00;6.17;;;23.70;75.90;;;;;;4992907;28;20500;-88
2023/04/23 10:47:15;;;;;;;8.23;6.17;;;23.70;76.50;;;;;;4994045;28;20446;-85
2023/04/23 10:49:42;;;;;;;8.93;6.50;;;23.70;76.00;;;;;;4994082;28;20297;-88
2023/04/23 10:52:09;;;;;;;6.80;6.10;;;23.60;76.50;;;;;;4996554;28;20942;-88
2023/04/23 10:54:35;;;;;;;6.70;6.13;;;23.60;78.00;;;;;;4994626;28;20513;-88
2023/04/23 10:57:05;;;;;;;11.60;7.00;;;23.70;74.90;;;;;;4994162;28;20515;-86
2023/04/23 10:59:37;;;;;;;7.43;6.63;;;23.70;76.40;;;;;;4993469;28;20456;-82
2023/04/23 11:02:08;;;;;;;6.93;6.20;;;23.70;75.70;;;;;;4993996;28;20410;-88
2023/04/23 11:04:35;;;;;;;7.10;6.40;;;23.70;78.60;;;;;;4995221;28;20505;-82
2023/04/23 11:07:14;;;;;;;6.97;6.37;;;23.80;79.40;;;;;;4995445;28;20972;-88
2023/04/23 11:09:43;;;;;;;8.30;6.40;;;23.80;78.40;;;;;;4995576;28;20596;-82
2023/04/23 11:12:24;;;;;;;7.00;6.47;;;23.80;80.00;;;;;;4994105;28;20425;-82
2023/04/23 11:14:51;;;;;;;7.00;6.33;;;24.10;78.50;;;;;;4993799;28;20449;-83
2023/04/23 11:17:21;;;;;;;7.27;5.83;;;24.10;73.60;;;;;;4995173;28;20459;-81
2023/04/23 11:20:09;;;;;;;7.07;6.47;;;24.10;73.80;;;;;;4994055;28;20607;-88
2023/04/23 11:22:53;;;;;;;8.10;7.30;;;24.20;71.60;;;;;;4993908;28;20444;-88
2023/04/23 11:25:20;;;;;;;6.90;6.30;;;24.20;72.50;;;;;;4995418;28;20488;-85
2023/04/23 11:27:46;;;;;;;7.33;6.63;;;24.20;72.70;;;;;;4995011;28;20559;-82
2023/04/23 11:30:15;;;;;;;8.17;6.77;;;24.30;72.50;;;;;;4993833;28;20456;-87
2023/04/23 11:32:43;;;;;;;7.03;6.37;;;24.30;73.30;;;;;;4993636;28;20448;-82
2023/04/23 11:35:09;;;;;;;6.23;5.73;;;24.40;70.90;;;;;;4993481;28;20472;-83
2023/04/23 11:37:40;;;;;;;6.77;6.17;;;24.30;69.40;;;;;;4995338;28;20417;-83
2023/04/23 11:40:12;;;;;;;7.40;6.77;;;24.10;69.30;;;;;;4995279;28;20498;-89
2023/04/23 11:42:46;;;;;;;9.20;5.80;;;24.10;69.20;;;;;;4993460;28;20447;-88
2023/04/23 11:45:17;;;;;;;8.00;6.63;;;24.20;71.00;;;;;;4995146;28;20444;-89
2023/04/23 11:47:44;;;;;;;6.90;6.20;;;24.20;71.70;;;;;;4993494;28;20465;-88
2023/04/23 11:50:16;;;;;;;6.77;6.17;;;24.30;71.80;;;;;;4994107;28;20543;-88
2023/04/23 11:52:43;;;;;;;6.47;5.80;;;24.30;71.00;;;;;;4993462;28;20431;-88
2023/04/23 11:55:09;;;;;;;6.30;5.77;;;24.40;71.60;;;;;;4993652;28;20502;-88
2023/04/23 11:57:49;;;;;;;5.70;5.20;;;24.20;68.80;;;;;;4993540;28;20409;-88
2023/04/23 12:00:21;;;;;;;6.60;5.93;;;23.80;68.70;;;;;;4993474;28;20881;-82
2023/04/23 12:02:59;;;;;;;6.47;5.87;;;23.90;70.50;;;;;;4994478;28;20420;-87
2023/04/23 12:05:35;;;;;;;7.10;6.17;;;24.10;70.00;;;;;;4994799;28;21009;-88
2023/04/23 12:08:20;;;;;;;8.10;6.67;;;24.30;71.60;;;;;;4993107;28;20468;-82
2023/04/23 12:10:52;;;;;;;8.30;5.53;;;24.50;68.50;;;;;;4995586;28;20976;-82
2023/04/23 12:13:26;;;;;;;6.67;5.90;;;24.40;68.50;;;;;;4981183;28;20497;-83
2023/04/23 12:15:56;;;;;;;6.33;5.73;;;24.30;69.30;;;;;;4978723;28;20456;-89
2023/04/23 12:18:32;;;;;;;7.00;6.37;;;24.30;69.80;;;;;;4978606;28;21065;-82
2023/04/23 12:21:08;;;;;;;6.70;6.00;;;24.30;69.50;;;;;;4978840;28;20842;-89
2023/04/23 12:23:38;;;;;;;6.10;5.60;;;24.30;69.50;;;;;;4979757;28;20890;-89
2023/04/23 12:26:13;;;;;;;6.50;6.00;;;24.30;68.30;;;;;;4979918;28;20539;-83
2023/04/23 12:29:06;;;;;;;7.80;6.10;;;24.30;68.50;;;;;;4980498;28;20547;-89
2023/04/23 12:31:32;;;;;;;5.97;5.47;;;24.30;68.70;;;;;;4981535;28;20479;-88
2023/04/23 12:34:01;;;;;;;6.13;5.30;;;24.30;68.00;;;;;;4981029;28;20444;-83